aviador You're here:

VNKT Decoded Metar

KATHMANDU in NEPAL
Report Time2015-03-06 01:50:00
UTC Time2015-03-06 02:21:14
Flight Rules ifr IFR
Wind130° at 03 kt
W.Decomp.*RWY 20: 1.0 kt HW 2.8 kt LCW
W.Rank130° ranks 22
Current wind is below 130° avg. (3.8)
Visibility3000 m
Phenomena:Mist
Clouds:Few 015 Hf
Expected CloudBase > 800 ft AGL from Temp-Dew spread
CeilingNone
Temp08°C (ISA +2)
Dew Point06°C (87% RH)
AAT6.0°C
QNH1019 hPa
Density Alt4,528 ft
Elevation4,386 ft
Report Wrong Elevation
Raw Report
METAR VNKT 060150Z 13003KT 3000 BR FEW015 08/06 Q1019 NOSIG=

Extra information for VNKT:More info

Metar Taf Metar & Taf Last 4 Metars F.Rules Stats Wind Profile Meteogram Temp Stats Airport Information Weather charts Add Link Nearby VenuesMetar ALERT Operation Metar Decoded Social comments